Time;durP1;ratioP1;P1;durP2;ratioP2;P2;SDS_P1;SDS_P2;PMS_P1;PMS_P2;Temp;Humidity;BMP_temperature;BMP_pressure;BME280_temperature;BME280_humidity;BME280_pressure;Samples;Min_cycle;Max_cycle;Signal;HPM_P1;HPM_P2
2022/07/15 00:00:48;;;;;;;9.93;1.30;;;14.00;99.90;;;;;;5127159;27;20470;-79
2022/07/15 00:03:13;;;;;;;8.95;1.08;;;14.00;99.90;;;;;;5128875;27;20142;-79
2022/07/15 00:05:39;;;;;;;11.50;1.38;;;14.10;99.90;;;;;;5129892;27;20114;-80
2022/07/15 00:08:05;;;;;;;9.23;2.20;;;14.20;99.90;;;;;;5128516;27;20047;-80
2022/07/15 00:10:30;;;;;;;11.05;1.55;;;14.20;99.90;;;;;;5111751;27;20071;-79
2022/07/15 00:12:58;;;;;;;10.13;1.60;;;14.10;99.90;;;;;;5128196;27;20080;-80
2022/07/15 00:15:27;;;;;;;9.55;1.58;;;14.10;99.90;;;;;;5128950;27;20035;-79
2022/07/15 00:17:53;;;;;;;6.55;1.13;;;14.80;99.90;;;;;;5119745;27;20130;-79
2022/07/15 00:20:20;;;;;;;9.90;2.05;;;14.10;99.90;;;;;;5109008;27;20119;-80
2022/07/15 00:22:46;;;;;;;10.02;1.13;;;14.20;99.90;;;;;;5104872;27;20501;-80
2022/07/15 00:25:13;;;;;;;7.97;1.23;;;14.20;99.90;;;;;;5127820;27;20079;-79
2022/07/15 00:27:57;;;;;;;9.90;2.00;;;14.20;99.90;;;;;;5124771;27;20646;-80
2022/07/15 00:30:26;;;;;;;8.88;0.95;;;14.20;99.90;;;;;;5107605;27;20035;-80
2022/07/15 00:32:52;;;;;;;9.38;1.60;;;14.20;99.90;;;;;;5082916;28;20040;-80
2022/07/15 00:35:17;;;;;;;8.13;1.45;;;14.10;99.90;;;;;;5126966;27;20092;-80
2022/07/15 00:37:43;;;;;;;5.93;1.10;;;14.20;99.90;;;;;;5127187;27;20482;-79
2022/07/15 00:40:12;;;;;;;6.05;1.58;;;15.00;99.90;;;;;;5128302;27;20046;-79
2022/07/15 00:42:43;;;;;;;7.20;1.30;;;14.30;99.90;;;;;;5127973;27;20055;-79
2022/07/15 00:45:14;;;;;;;8.48;1.15;;;14.30;99.90;;;;;;5125239;27;20122;-80
2022/07/15 00:47:45;;;;;;;12.20;1.45;;;14.30;99.90;;;;;;5109520;27;20510;-79
2022/07/15 00:50:13;;;;;;;8.15;1.10;;;14.30;99.90;;;;;;5105594;27;20484;-79
2022/07/15 00:52:42;;;;;;;7.90;1.70;;;15.30;99.90;;;;;;5129288;27;20087;-78
2022/07/15 00:55:10;;;;;;;8.50;1.33;;;15.00;99.90;;;;;;5132254;27;20045;-80
2022/07/15 00:57:41;;;;;;;7.13;1.60;;;14.20;99.90;;;;;;5106813;27;20043;-80
2022/07/15 01:00:10;;;;;;;6.10;1.40;;;14.20;99.90;;;;;;5126463;27;20047;-80
2022/07/15 01:02:37;;;;;;;11.27;1.42;;;14.20;99.90;;;;;;5128738;27;20043;-80
2022/07/15 01:05:05;;;;;;;8.40;1.13;;;14.20;99.90;;;;;;5128347;27;20047;-80
2022/07/15 01:07:32;;;;;;;10.85;1.95;;;14.10;99.90;;;;;;5124728;27;20115;-80
2022/07/15 01:09:58;;;;;;;7.70;1.40;;;14.20;99.90;;;;;;5128350;27;20043;-80
2022/07/15 01:12:25;;;;;;;13.23;1.38;;;14.10;99.90;;;;;;5108421;27;20115;-79
2022/07/15 01:14:50;;;;;;;6.93;1.35;;;14.10;99.90;;;;;;5120769;27;20042;-79
2022/07/15 01:17:16;;;;;;;6.35;1.70;;;14.10;99.90;;;;;;5125067;27;20043;-79
2022/07/15 01:19:42;;;;;;;8.00;1.42;;;14.10;99.90;;;;;;5127664;27;20045;-79
2022/07/15 01:22:07;;;;;;;7.60;1.40;;;15.00;99.90;;;;;;5129016;28;20532;-80
2022/07/15 01:24:33;;;;;;;8.32;1.50;;;14.00;99.90;;;;;;5125321;27;20095;-80
2022/07/15 01:27:00;;;;;;;9.82;1.65;;;14.10;99.90;;;;;;5125464;27;20122;-80
2022/07/15 01:29:27;;;;;;;6.90;1.00;;;14.70;99.90;;;;;;5127041;27;20039;-80
2022/07/15 01:31:53;;;;;;;11.20;2.13;;;14.00;99.90;;;;;;5107293;27;20507;-80
2022/07/15 01:34:19;;;;;;;7.25;1.33;;;14.00;99.90;;;;;;5126216;27;20045;-80
2022/07/15 01:36:45;;;;;;;10.25;1.77;;;14.00;99.90;;;;;;5127557;27;20036;-80
2022/07/15 01:39:14;;;;;;;3.70;1.20;;;14.00;99.90;;;;;;5126588;27;20397;-80
2022/07/15 01:41:39;;;;;;;6.32;0.85;;;13.90;99.90;;;;;;5122484;27;20494;-79
2022/07/15 01:44:05;;;;;;;9.55;1.25;;;13.90;99.90;;;;;;5128271;28;20043;-79
2022/07/15 01:46:30;;;;;;;11.82;1.95;;;14.20;99.90;;;;;;5108108;28;20028;-79
2022/07/15 01:51:41;;;;;;;10.93;1.27;;;13.80;99.90;;;;;;5125089;27;20083;-79
2022/07/15 01:54:06;;;;;;;5.95;1.40;;;13.70;99.90;;;;;;5127559;28;20072;-79
2022/07/15 01:56:32;;;;;;;7.35;1.08;;;13.80;99.90;;;;;;5126587;27;20364;-79
2022/07/15 01:58:58;;;;;;;8.00;1.20;;;13.70;99.90;;;;;;5120365;27;20511;-79
2022/07/15 02:01:24;;;;;;;12.32;1.35;;;13.70;99.90;;;;;;5126094;27;20043;-79
2022/07/15 02:03:49;;;;;;;11.35;2.20;;;13.70;99.90;;;;;;5104558;28;20181;-79
2022/07/15 02:06:16;;;;;;;9.80;1.30;;;13.60;99.90;;;;;;5101365;28;20066;-79
2022/07/15 02:08:42;;;;;;;6.88;1.52;;;13.60;99.90;;;;;;5108147;28;20035;-79
2022/07/15 02:11:08;;;;;;;5.25;1.40;;;13.60;99.90;;;;;;5111750;27;20046;-79
2022/07/15 02:13:33;;;;;;;5.47;1.05;;;13.60;99.90;;;;;;5125320;27;20035;-79
2022/07/15 02:15:59;;;;;;;10.30;1.63;;;13.50;99.90;;;;;;5095117;27;20036;-79
2022/07/15 02:18:24;;;;;;;9.30;1.63;;;13.50;99.90;;;;;;5095697;27;20054;-79
2022/07/15 02:20:50;;;;;;;7.88;1.73;;;13.50;99.90;;;;;;5110993;27;20034;-79
2022/07/15 02:23:16;;;;;;;6.63;1.27;;;13.40;99.90;;;;;;5108350;27;20063;-78
2022/07/15 02:25:42;;;;;;;9.35;1.73;;;13.40;99.90;;;;;;5106950;27;20082;-79
2022/07/15 02:28:07;;;;;;;5.80;1.40;;;13.30;99.90;;;;;;5094851;27;20035;-79
2022/07/15 02:30:36;;;;;;;5.90;1.70;;;13.70;99.90;;;;;;5111286;27;20043;-79
2022/07/15 02:33:03;;;;;;;6.93;1.75;;;14.00;99.90;;;;;;5113435;27;20070;-79
2022/07/15 02:35:30;;;;;;;7.88;1.20;;;13.00;99.90;;;;;;5129475;27;20521;-79
2022/07/15 02:37:56;;;;;;;3.30;0.88;;;13.30;99.90;;;;;;5110768;27;20047;-79
2022/07/15 02:40:22;;;;;;;6.63;1.17;;;13.30;99.90;;;;;;5112540;27;20050;-79
2022/07/15 02:42:50;;;;;;;8.20;1.67;;;13.20;99.90;;;;;;5129044;27;20502;-79
2022/07/15 02:45:17;;;;;;;5.38;1.40;;;13.20;99.90;;;;;;5113681;27;20046;-79
2022/07/15 02:47:42;;;;;;;6.47;1.60;;;13.40;99.90;;;;;;5129233;27;20062;-79
2022/07/15 02:50:08;;;;;;;5.13;1.20;;;13.20;99.90;;;;;;5111465;27;20090;-78
2022/07/15 02:52:34;;;;;;;6.13;0.90;;;13.10;99.90;;;;;;5130476;27;20051;-79
2022/07/15 02:55:00;;;;;;;5.82;1.15;;;13.10;99.90;;;;;;5129005;27;20066;-79
2022/07/15 02:57:27;;;;;;;6.28;0.93;;;13.20;99.90;;;;;;5129728;27;20081;-80
2022/07/15 02:59:53;;;;;;;8.45;1.45;;;13.10;99.90;;;;;;5129596;27;20039;-79
2022/07/15 03:02:19;;;;;;;5.82;1.00;;;13.20;99.90;;;;;;5124669;27;20092;-79
2022/07/15 03:04:45;;;;;;;6.95;1.27;;;13.20;99.90;;;;;;5128900;27;20497;-79
2022/07/15 03:07:10;;;;;;;8.82;1.27;;;13.20;99.90;;;;;;5112193;27;20478;-80
2022/07/15 03:09:37;;;;;;;4.65;1.20;;;13.20;99.90;;;;;;5130364;27;20469;-80
2022/07/15 03:12:02;;;;;;;5.78;0.90;;;13.20;99.90;;;;;;5128228;27;20031;-80
2022/07/15 03:14:28;;;;;;;6.10;0.90;;;13.20;99.90;;;;;;5086142;27;20101;-80
2022/07/15 03:16:54;;;;;;;3.30;0.88;;;13.60;99.90;;;;;;5108547;28;20047;-80
2022/07/15 03:19:20;;;;;;;5.68;1.23;;;13.10;99.90;;;;;;5129835;27;20043;-80
2022/07/15 03:21:47;;;;;;;5.55;1.25;;;13.10;99.90;;;;;;5121506;27;20040;-79
2022/07/15 03:24:14;;;;;;;6.57;0.90;;;13.00;99.90;;;;;;5129206;27;20453;-79
2022/07/15 03:26:40;;;;;;;5.90;1.17;;;13.00;99.90;;;;;;5123805;27;20050;-79
2022/07/15 03:29:05;;;;;;;4.28;0.90;;;13.70;99.90;;;;;;5128847;27;20047;-79
2022/07/15 03:47:27;;;;;;;6.97;1.10;;;14.50;99.90;;;;;;4996985;28;20504;-79
2022/07/15 03:49:54;;;;;;;4.70;1.15;;;12.30;99.90;;;;;;5004650;28;20125;-78
2022/07/15 03:52:19;;;;;;;11.95;1.20;;;12.90;99.90;;;;;;5004907;28;20030;-79
2022/07/15 03:54:45;;;;;;;7.03;1.02;;;14.50;99.90;;;;;;5005769;28;20038;-79
2022/07/15 03:57:13;;;;;;;6.47;1.20;;;13.70;99.90;;;;;;5007719;28;20038;-79
2022/07/15 03:59:39;;;;;;;5.63;0.90;;;12.80;99.90;;;;;;5008300;28;20065;-79
2022/07/15 04:02:05;;;;;;;5.15;1.15;;;12.80;99.90;;;;;;5006727;28;20107;-79
2022/07/15 04:04:30;;;;;;;6.50;0.88;;;12.80;99.90;;;;;;5004824;28;20036;-79
2022/07/15 04:06:56;;;;;;;5.43;1.08;;;12.80;99.90;;;;;;5009144;28;20471;-79
2022/07/15 04:09:21;;;;;;;3.58;0.95;;;12.80;99.90;;;;;;5009029;28;20050;-78
2022/07/15 04:11:47;;;;;;;5.18;0.85;;;13.80;99.90;;;;;;5007353;28;20078;-78
2022/07/15 04:14:14;;;;;;;6.47;0.90;;;13.40;99.90;;;;;;5007162;28;20050;-79
2022/07/15 04:16:42;;;;;;;6.95;0.63;;;12.90;99.90;;;;;;5003376;28;20347;-78
2022/07/15 04:19:08;;;;;;;3.80;0.50;;;12.90;99.90;;;;;;4986879;28;20053;-78
2022/07/15 04:21:34;;;;;;;4.07;0.45;;;13.00;99.90;;;;;;5006498;28;20050;-77
2022/07/15 04:24:00;;;;;;;4.38;0.63;;;13.00;99.90;;;;;;5006558;28;20313;-79
2022/07/15 04:26:27;;;;;;;6.25;0.90;;;12.90;99.90;;;;;;4990013;28;20563;-78
2022/07/15 04:28:52;;;;;;;3.13;0.80;;;13.40;99.90;;;;;;5006038;28;20068;-78
2022/07/15 04:31:18;;;;;;;6.32;0.90;;;12.90;99.90;;;;;;5004158;28;20478;-79
2022/07/15 04:33:44;;;;;;;5.93;0.80;;;12.90;99.90;;;;;;5004670;28;20077;-78
2022/07/15 04:36:10;;;;;;;3.58;0.80;;;12.90;99.90;;;;;;5007648;28;20528;-79
2022/07/15 04:38:35;;;;;;;5.20;0.73;;;12.90;99.90;;;;;;5009188;28;20061;-79
2022/07/15 04:41:01;;;;;;;3.33;0.63;;;13.70;99.90;;;;;;5002322;28;20482;-79
2022/07/15 04:43:27;;;;;;;3.28;0.50;;;12.90;99.90;;;;;;5004106;28;20057;-80
2022/07/15 04:45:53;;;;;;;2.45;0.38;;;12.90;99.90;;;;;;5002241;28;20372;-79
2022/07/15 04:51:03;;;;;;;6.95;0.80;;;14.00;99.90;;;;;;5005631;28;20046;-79
2022/07/15 04:53:29;;;;;;;3.38;0.85;;;12.90;99.90;;;;;;5005985;28;20054;-79
2022/07/15 04:55:55;;;;;;;5.55;0.75;;;12.90;99.90;;;;;;5009515;28;20046;-80
2022/07/15 04:58:20;;;;;;;2.85;0.80;;;13.00;99.90;;;;;;4985631;28;20050;-80
2022/07/15 05:00:46;;;;;;;3.33;0.57;;;13.00;99.90;;;;;;5008268;28;20049;-79
2022/07/15 05:03:13;;;;;;;2.00;0.40;;;13.00;99.90;;;;;;4995522;28;20053;-79
2022/07/15 05:05:38;;;;;;;2.28;0.50;;;13.00;99.90;;;;;;5006966;28;20105;-79
2022/07/15 05:08:07;;;;;;;2.70;0.30;;;13.90;99.90;;;;;;5008806;28;20121;-80
2022/07/15 05:10:33;;;;;;;4.70;0.47;;;13.00;99.90;;;;;;5008308;28;20052;-80
2022/07/15 05:12:59;;;;;;;1.70;0.30;;;13.00;99.90;;;;;;5003599;28;20117;-79
2022/07/15 05:15:24;;;;;;;4.47;0.47;;;13.80;99.90;;;;;;5004904;28;20478;-78
2022/07/15 05:17:50;;;;;;;1.83;0.45;;;13.00;99.90;;;;;;5006469;28;20042;-79
2022/07/15 05:20:21;;;;;;;3.08;0.60;;;13.00;99.90;;;;;;5003382;28;20049;-78
2022/07/15 05:22:48;;;;;;;2.85;0.50;;;13.00;99.90;;;;;;5004519;28;20295;-78
2022/07/15 05:25:13;;;;;;;8.00;0.50;;;13.10;99.90;;;;;;5001993;28;20046;-79
2022/07/15 05:27:39;;;;;;;5.60;0.60;;;13.10;99.90;;;;;;4992003;28;20080;-79
2022/07/15 05:30:05;;;;;;;5.25;0.70;;;13.10;99.90;;;;;;5009063;28;20413;-78
2022/07/15 05:32:34;;;;;;;3.90;0.70;;;13.20;99.90;;;;;;5004667;28;20116;-79
2022/07/15 05:34:59;;;;;;;4.38;0.80;;;13.20;99.90;;;;;;5008828;28;20052;-78
2022/07/15 05:37:25;;;;;;;5.32;0.63;;;13.20;99.90;;;;;;5006075;28;20124;-78
2022/07/15 05:39:53;;;;;;;3.60;0.68;;;13.30;99.90;;;;;;4998570;28;20060;-77
2022/07/15 05:42:38;;;;;;;5.57;0.70;;;13.30;99.90;;;;;;4996732;28;20191;-76
2022/07/15 05:45:04;;;;;;;3.75;0.73;;;13.30;99.90;;;;;;4994375;28;20046;-77
2022/07/15 05:47:32;;;;;;;5.50;0.80;;;13.40;99.90;;;;;;4309872;28;10000753;-77
2022/07/15 05:49:58;;;;;;;3.60;0.73;;;13.40;99.90;;;;;;5002971;28;20365;-76
2022/07/15 05:52:23;;;;;;;6.13;0.65;;;13.50;99.90;;;;;;5006587;28;20464;-77
2022/07/15 05:54:49;;;;;;;3.65;0.60;;;14.10;99.90;;;;;;5002276;28;20038;-77
2022/07/15 05:57:14;;;;;;;7.70;0.93;;;13.60;99.90;;;;;;5006972;28;20058;-77
2022/07/15 05:59:40;;;;;;;1.80;0.45;;;13.60;99.90;;;;;;5006800;28;20049;-77
2022/07/15 06:02:06;;;;;;;1.33;0.52;;;13.60;99.90;;;;;;5008849;28;20046;-75
2022/07/15 06:04:32;;;;;;;8.82;0.85;;;13.70;99.90;;;;;;5009212;28;20052;-75
2022/07/15 06:06:57;;;;;;;1.73;0.25;;;13.70;99.90;;;;;;5006275;28;20429;-75
2022/07/15 06:09:23;;;;;;;1.02;0.40;;;13.80;99.90;;;;;;5003340;28;20038;-76
2022/07/15 06:11:48;;;;;;;3.63;0.25;;;14.40;99.90;;;;;;4999263;28;20466;-80
2022/07/15 06:14:14;;;;;;;3.03;0.40;;;13.90;99.90;;;;;;5002451;28;20065;-77
2022/07/15 06:16:43;;;;;;;3.13;0.88;;;13.90;99.90;;;;;;5001568;28;20041;-75
2022/07/15 06:19:10;;;;;;;2.25;0.65;;;14.10;99.90;;;;;;5001096;28;20469;-76
2022/07/15 06:21:38;;;;;;;4.10;0.50;;;14.10;99.90;;;;;;4999349;28;20490;-75
2022/07/15 06:24:04;;;;;;;2.72;0.70;;;14.10;99.90;;;;;;5000515;28;20040;-76
2022/07/15 06:26:30;;;;;;;1.85;0.10;;;14.20;99.90;;;;;;5002997;28;20054;-76
2022/07/15 06:28:56;;;;;;;2.25;0.13;;;14.40;99.90;;;;;;5007116;28;20045;-76
2022/07/15 06:31:21;;;;;;;3.38;0.50;;;14.30;99.90;;;;;;5010154;28;20046;-77
2022/07/15 06:33:47;;;;;;;4.63;0.82;;;14.50;99.90;;;;;;5009924;28;20070;-74
2022/07/15 06:36:12;;;;;;;5.30;1.08;;;15.50;99.90;;;;;;5005137;28;20092;-77
2022/07/15 06:38:38;;;;;;;4.85;0.22;;;14.80;99.90;;;;;;5007062;28;20444;-77
2022/07/15 06:41:05;;;;;;;4.50;0.30;;;14.40;99.90;;;;;;5003692;28;20046;-75
2022/07/15 06:43:30;;;;;;;2.60;0.20;;;14.60;99.90;;;;;;5005529;28;20053;-77
2022/07/15 06:46:14;;;;;;;3.17;0.20;;;14.70;99.90;;;;;;5010255;28;20393;-75
2022/07/15 06:48:41;;;;;;;7.28;1.08;;;14.80;99.90;;;;;;5006728;28;20529;-74
2022/07/15 06:51:08;;;;;;;5.53;0.30;;;14.90;99.90;;;;;;5002084;28;20049;-74
2022/07/15 06:53:34;;;;;;;3.97;0.30;;;15.00;99.90;;;;;;5005183;28;20054;-70
2022/07/15 06:55:59;;;;;;;4.18;0.20;;;15.10;99.90;;;;;;5008358;28;20088;-70
2022/07/15 06:58:25;;;;;;;2.15;0.30;;;15.20;99.90;;;;;;5010989;28;20371;-71
2022/07/15 07:00:51;;;;;;;7.95;0.63;;;15.30;99.90;;;;;;5007843;28;20673;-70
2022/07/15 07:03:16;;;;;;;2.88;0.73;;;15.30;99.90;;;;;;5010396;28;20045;-77
2022/07/15 07:05:42;;;;;;;2.45;0.30;;;15.40;99.90;;;;;;5005357;28;20041;-73
2022/07/15 07:08:08;;;;;;;6.50;0.80;;;15.40;99.90;;;;;;5009761;28;20343;-72
2022/07/15 07:10:33;;;;;;;5.68;0.73;;;15.50;99.90;;;;;;5009211;28;20046;-73
2022/07/15 07:12:59;;;;;;;4.63;0.40;;;15.50;99.90;;;;;;5008099;28;20065;-73
2022/07/15 07:15:25;;;;;;;4.85;0.50;;;15.60;99.90;;;;;;5009210;28;20652;-75
2022/07/15 07:17:51;;;;;;;0.82;0.15;;;15.70;99.90;;;;;;5009727;28;20115;-74
2022/07/15 07:20:17;;;;;;;5.28;0.30;;;16.70;99.90;;;;;;5009936;28;20038;-74
2022/07/15 07:22:43;;;;;;;3.15;0.35;;;15.80;99.90;;;;;;5010003;28;20530;-74
2022/07/15 07:25:09;;;;;;;3.97;0.52;;;15.80;99.90;;;;;;5010082;28;20042;-74
2022/07/15 07:27:34;;;;;;;2.80;0.35;;;15.60;99.90;;;;;;5010523;28;20048;-75
2022/07/15 07:30:04;;;;;;;2.58;0.35;;;15.90;99.90;;;;;;5007466;28;20473;-74
2022/07/15 07:32:33;;;;;;;0.88;0.32;;;16.00;99.90;;;;;;5009806;28;20478;-73
2022/07/15 07:34:58;;;;;;;4.78;0.20;;;16.20;99.90;;;;;;5007545;28;20038;-74
2022/07/15 07:37:26;;;;;;;3.13;0.20;;;16.30;99.90;;;;;;5008428;28;20087;-74
2022/07/15 07:39:52;;;;;;;4.75;0.35;;;16.30;99.90;;;;;;5008732;28;20037;-74
2022/07/15 07:42:19;;;;;;;3.38;0.35;;;17.40;99.90;;;;;;5001667;28;20046;-75
2022/07/15 07:44:44;;;;;;;1.83;0.40;;;17.00;99.90;;;;;;5005608;28;20057;-74
2022/07/15 07:47:10;;;;;;;3.47;0.45;;;16.60;99.90;;;;;;5013959;28;20038;-78
2022/07/15 07:49:36;;;;;;;1.50;0.10;;;16.50;99.90;;;;;;5006197;28;20061;-75
2022/07/15 07:52:02;;;;;;;2.55;0.30;;;16.60;99.90;;;;;;5001957;28;20053;-75
2022/07/15 07:54:29;;;;;;;5.15;0.35;;;16.40;99.90;;;;;;5002922;28;20042;-75
2022/07/15 07:56:55;;;;;;;3.55;0.13;;;16.40;99.90;;;;;;5006037;28;20037;-76
2022/07/15 07:59:21;;;;;;;6.13;0.20;;;16.30;99.90;;;;;;5002955;28;20049;-76
2022/07/15 08:01:46;;;;;;;1.92;0.30;;;16.40;99.90;;;;;;5006615;28;20048;-75
2022/07/15 08:04:13;;;;;;;0.82;0.20;;;16.40;99.90;;;;;;5001697;28;20050;-75
2022/07/15 08:06:40;;;;;;;2.00;0.20;;;16.50;99.90;;;;;;5001521;28;20038;-77
2022/07/15 08:09:06;;;;;;;1.75;0.10;;;16.60;99.90;;;;;;5001213;28;20485;-77
2022/07/15 08:11:32;;;;;;;1.10;0.20;;;16.60;99.90;;;;;;5003758;28;20049;-76
2022/07/15 08:13:57;;;;;;;4.53;0.35;;;16.90;99.90;;;;;;5004869;28;20046;-77
2022/07/15 08:16:24;;;;;;;0.63;0.15;;;16.70;99.90;;;;;;5004361;28;20073;-77
2022/07/15 08:18:49;;;;;;;1.08;0.10;;;17.30;99.90;;;;;;5006326;28;20072;-77
2022/07/15 08:21:15;;;;;;;4.97;0.22;;;16.80;99.90;;;;;;5005205;28;20050;-77
2022/07/15 08:23:41;;;;;;;1.98;0.10;;;16.90;99.90;;;;;;5002538;28;20113;-77
2022/07/15 08:26:08;;;;;;;1.75;0.10;;;16.90;99.90;;;;;;5005865;28;20076;-77
2022/07/15 08:28:34;;;;;;;0.52;0.03;;;16.90;99.90;;;;;;5004027;28;20061;-77
2022/07/15 08:31:00;;;;;;;3.10;0.20;;;16.80;99.90;;;;;;4999924;28;20042;-76
2022/07/15 08:33:25;;;;;;;2.33;0.10;;;16.70;99.90;;;;;;5006510;28;20095;-78
2022/07/15 08:35:51;;;;;;;2.35;0.20;;;16.60;99.90;;;;;;5006324;28;20041;-76
2022/07/15 08:38:17;;;;;;;0.80;0.10;;;16.50;99.90;;;;;;5000372;28;20038;-76
2022/07/15 08:40:43;;;;;;;0.30;0.08;;;17.30;99.90;;;;;;5002319;28;20485;-77
2022/07/15 08:43:10;;;;;;;1.27;0.20;;;16.80;99.90;;;;;;5004842;28;20393;-76
2022/07/15 08:45:42;;;;;;;3.45;0.17;;;16.90;99.90;;;;;;5006594;28;20054;-73
2022/07/15 08:48:08;;;;;;;1.55;0.22;;;17.10;99.90;;;;;;5003555;28;20044;-75
2022/07/15 08:50:36;;;;;;;0.63;0.17;;;17.20;99.90;;;;;;5006201;28;20077;-76
2022/07/15 08:53:03;;;;;;;132.20;7.65;;;17.30;99.90;;;;;;5004070;28;20087;-74
2022/07/15 08:55:29;;;;;;;138.77;8.25;;;17.90;99.90;;;;;;5002377;28;20042;-73
2022/07/15 08:57:55;;;;;;;2.88;0.20;;;18.20;99.90;;;;;;5002665;28;20046;-77
2022/07/15 09:00:28;;;;;;;3.53;0.35;;;18.00;99.90;;;;;;5005799;28;20145;-78
2022/07/15 09:02:58;;;;;;;3.83;0.20;;;17.50;99.90;;;;;;5000312;28;20136;-71
2022/07/15 09:05:34;;;;;;;3.60;0.43;;;17.50;99.90;;;;;;5002726;28;20054;-72
2022/07/15 09:08:07;;;;;;;4.13;0.20;;;17.50;99.90;;;;;;5003058;28;20046;-72
2022/07/15 09:10:54;;;;;;;3.45;0.17;;;17.50;99.90;;;;;;5004884;28;20044;-72
2022/07/15 09:13:40;;;;;;;4.35;0.20;;;17.40;99.90;;;;;;5007706;28;20072;-71
2022/07/15 09:16:13;;;;;;;2.42;0.30;;;17.40;99.90;;;;;;5004306;28;20074;-72
2022/07/15 09:18:43;;;;;;;1.35;0.35;;;17.40;99.90;;;;;;4999163;28;20041;-72
2022/07/15 09:21:17;;;;;;;1.23;0.20;;;17.40;99.90;;;;;;4999442;28;20065;-73
2022/07/15 09:23:42;;;;;;;3.50;0.50;;;17.60;99.90;;;;;;5004711;28;20049;-73
2022/07/15 09:26:29;;;;;;;3.72;0.30;;;17.40;99.90;;;;;;5004453;28;20064;-74
2022/07/15 09:28:56;;;;;;;2.38;0.20;;;17.30;99.90;;;;;;5004196;28;20041;-72
2022/07/15 09:34:12;;;;;;;2.72;0.22;;;17.20;99.90;;;;;;5001011;28;20046;-73
2022/07/15 09:36:42;;;;;;;1.38;0.22;;;17.20;99.90;;;;;;4999000;28;20512;-75
2022/07/15 09:39:08;;;;;;;0.95;0.10;;;17.20;99.90;;;;;;4311225;28;10000818;-76
2022/07/15 09:41:33;;;;;;;2.10;0.30;;;17.30;99.90;;;;;;5006513;28;20038;-76
2022/07/15 09:44:05;;;;;;;1.60;0.10;;;17.30;99.90;;;;;;5004518;28;20041;-76
2022/07/15 09:46:44;;;;;;;4.68;0.52;;;17.20;99.90;;;;;;5005600;28;20156;-76
2022/07/15 09:49:25;;;;;;;2.53;0.10;;;17.30;99.90;;;;;;5006990;28;20046;-77
2022/07/15 09:51:54;;;;;;;4.60;0.30;;;17.40;99.90;;;;;;5000530;28;20038;-76
2022/07/15 09:54:25;;;;;;;2.40;0.43;;;17.40;99.90;;;;;;5000227;28;20042;-77
2022/07/15 09:56:51;;;;;;;2.80;0.20;;;17.40;99.90;;;;;;5004065;28;20037;-76
2022/07/15 09:59:18;;;;;;;2.95;0.40;;;17.40;99.90;;;;;;5003176;28;20069;-76
2022/07/15 10:01:47;;;;;;;3.17;0.32;;;17.80;99.90;;;;;;5003257;28;20042;-76
2022/07/15 10:04:15;;;;;;;4.43;0.30;;;17.50;99.90;;;;;;5005568;28;20549;-77
2022/07/15 10:06:42;;;;;;;2.17;0.20;;;17.70;99.90;;;;;;4997115;28;20038;-74
2022/07/15 10:09:09;;;;;;;2.53;0.30;;;17.60;99.90;;;;;;5004843;28;20050;-77
2022/07/15 10:11:41;;;;;;;2.95;0.35;;;17.70;99.90;;;;;;5001684;28;20096;-77
2022/07/15 10:14:29;;;;;;;3.53;0.20;;;17.90;99.90;;;;;;4986542;28;20422;-77
2022/07/15 10:17:12;;;;;;;1.67;0.20;;;17.90;99.90;;;;;;5004387;28;20487;-77
2022/07/15 10:20:17;;;;;;;1.25;0.22;;;17.90;99.90;;;;;;5002884;28;20152;-76
2022/07/15 10:22:52;;;;;;;1.30;0.10;;;17.80;99.90;;;;;;4995348;28;20061;-77
2022/07/15 10:25:31;;;;;;;1.83;0.20;;;17.80;99.90;;;;;;4999343;28;20054;-76
2022/07/15 10:28:24;;;;;;;46.95;3.35;;;17.80;99.90;;;;;;5003015;28;20111;-72
2022/07/15 10:31:20;;;;;;;5.15;0.10;;;17.70;99.90;;;;;;5000700;28;20064;-73
2022/07/15 10:34:12;;;;;;;0.28;0.13;;;17.70;99.90;;;;;;5002527;28;20452;-73
2022/07/15 10:36:51;;;;;;;1.70;0.10;;;17.70;99.90;;;;;;5000486;28;20050;-73
2022/07/15 10:39:19;;;;;;;1.23;0.17;;;17.70;99.90;;;;;;5003283;28;20050;-73
2022/07/15 10:42:02;;;;;;;0.73;0.00;;;17.80;99.90;;;;;;5005118;28;20085;-74
2022/07/15 10:44:33;;;;;;;2.10;0.10;;;17.80;99.90;;;;;;5006213;28;20050;-74
2022/07/15 10:47:11;;;;;;;3.65;0.10;;;17.90;99.90;;;;;;4999710;28;20042;-74
2022/07/15 10:49:37;;;;;;;2.03;0.10;;;18.00;99.90;;;;;;5005490;28;20054;-75
2022/07/15 10:52:20;;;;;;;0.50;0.05;;;18.10;99.90;;;;;;5006525;28;20049;-73
2022/07/15 10:54:48;;;;;;;1.50;0.20;;;19.00;99.90;;;;;;5005521;28;20390;-73
2022/07/15 10:57:16;;;;;;;2.50;0.25;;;18.30;99.90;;;;;;4996059;28;20542;-71
2022/07/15 10:59:55;;;;;;;4.05;0.30;;;18.30;99.90;;;;;;5004984;28;20466;-72
2022/07/15 11:02:22;;;;;;;1.33;0.10;;;18.50;99.90;;;;;;5006542;28;20060;-72
2022/07/15 11:04:49;;;;;;;3.05;0.25;;;18.40;99.90;;;;;;5008205;28;20056;-72
2022/07/15 11:07:14;;;;;;;1.10;0.13;;;18.40;99.90;;;;;;5001304;28;20451;-73
2022/07/15 11:09:55;;;;;;;1.15;0.10;;;18.50;99.90;;;;;;5004204;28;20100;-75
2022/07/15 11:12:28;;;;;;;3.22;0.22;;;18.60;99.90;;;;;;5000897;28;20077;-75
2022/07/15 11:15:04;;;;;;;0.38;0.10;;;18.60;99.90;;;;;;5006808;28;20441;-75
2022/07/15 11:17:29;;;;;;;0.77;0.00;;;18.70;99.90;;;;;;5007885;28;20766;-74
2022/07/15 11:20:08;;;;;;;4.20;0.20;;;18.70;99.90;;;;;;5006596;28;20042;-74
2022/07/15 11:22:36;;;;;;;1.75;0.20;;;18.70;99.90;;;;;;5004086;28;20058;-74
2022/07/15 11:25:03;;;;;;;4.45;0.20;;;18.70;99.90;;;;;;5003876;28;20123;-74
2022/07/15 11:27:29;;;;;;;1.73;0.30;;;18.70;99.90;;;;;;5005365;28;20053;-74
2022/07/15 11:30:02;;;;;;;1.08;0.20;;;18.70;99.90;;;;;;5004963;28;20153;-74
2022/07/15 11:32:32;;;;;;;3.03;0.10;;;18.80;99.90;;;;;;5001221;28;20056;-74
2022/07/15 11:35:02;;;;;;;0.75;0.40;;;18.80;99.90;;;;;;5005700;28;20069;-74
2022/07/15 11:37:35;;;;;;;2.65;0.10;;;19.00;99.90;;;;;;5020561;28;20480;-73
2022/07/15 11:40:09;;;;;;;2.53;0.13;;;19.10;99.90;;;;;;5005291;28;20053;-74
2022/07/15 11:45:37;;;;;;;1.00;0.30;;;19.30;99.90;;;;;;5005789;28;20065;-74
2022/07/15 11:48:06;;;;;;;4.53;0.10;;;19.40;99.90;;;;;;5003428;28;20034;-76
2022/07/15 11:50:54;;;;;;;9.07;0.75;;;19.60;99.90;;;;;;5004322;28;20433;-74
2022/07/15 11:53:19;;;;;;;3.50;0.15;;;19.80;99.90;;;;;;5006799;28;20447;-73
2022/07/15 11:55:59;;;;;;;2.17;0.28;;;19.90;99.90;;;;;;4995470;28;20046;-77
2022/07/15 11:58:52;;;;;;;1.33;0.20;;;20.10;99.90;;;;;;5005328;28;20041;-74
2022/07/15 12:01:21;;;;;;;2.25;0.13;;;20.20;99.90;;;;;;4988502;28;20068;-71
2022/07/15 12:03:52;;;;;;;2.85;0.50;;;20.40;99.90;;;;;;5004079;28;20073;-73
2022/07/15 12:06:37;;;;;;;1.27;0.20;;;20.60;99.90;;;;;;5004739;28;20531;-74
2022/07/15 12:09:08;;;;;;;2.72;0.25;;;19.80;99.90;;;;;;5000531;28;20030;-73
2022/07/15 12:11:38;;;;;;;1.23;0.10;;;19.70;99.90;;;;;;5006804;28;20046;-74
2022/07/15 12:14:12;;;;;;;1.17;0.20;;;19.90;99.90;;;;;;5007436;28;20113;-76
2022/07/15 12:16:43;;;;;;;0.95;0.10;;;19.50;99.90;;;;;;5006880;28;20393;-76
2022/07/15 12:19:17;;;;;;;3.00;0.05;;;19.50;99.90;;;;;;4309401;28;10021418;-75
2022/07/15 12:21:45;;;;;;;;;;;19.30;99.90;;;;;;4982148;28;20350;-74
2022/07/15 12:24:21;;;;;;;1.08;0.20;;;19.20;99.90;;;;;;5003472;28;20266;-74
2022/07/15 12:26:53;;;;;;;4.32;0.50;;;19.20;99.90;;;;;;5002171;28;20068;-73
2022/07/15 12:29:20;;;;;;;4.68;0.60;;;19.60;99.90;;;;;;5006754;28;20099;-72
2022/07/15 12:32:04;;;;;;;0.73;0.25;;;19.00;99.90;;;;;;5003344;28;20053;-72
2022/07/15 12:34:55;;;;;;;3.45;0.32;;;19.00;99.90;;;;;;5004713;28;20049;-73
2022/07/15 12:37:47;;;;;;;2.22;0.15;;;18.90;99.90;;;;;;5000919;28;20061;-73
2022/07/15 12:40:20;;;;;;;1.27;0.25;;;19.00;99.90;;;;;;5001790;28;20049;-72
2022/07/15 12:42:48;;;;;;;5.07;0.20;;;19.00;99.90;;;;;;5006227;28;20099;-73
2022/07/15 12:45:25;;;;;;;2.60;0.45;;;19.00;99.90;;;;;;5003996;28;20140;-72
2022/07/15 12:48:18;;;;;;;1.00;0.22;;;18.90;99.90;;;;;;5002300;28;20440;-74
2022/07/15 12:50:46;;;;;;;0.77;0.10;;;18.90;99.90;;;;;;5005015;28;20375;-74
2022/07/15 12:53:13;;;;;;;2.03;0.20;;;19.10;99.90;;;;;;5004173;28;20050;-74
2022/07/15 12:55:49;;;;;;;1.40;0.10;;;18.80;99.90;;;;;;4997412;28;20426;-74
2022/07/15 12:58:17;;;;;;;3.53;0.30;;;18.70;99.90;;;;;;5001172;28;20061;-73
2022/07/15 13:00:45;;;;;;;2.13;0.50;;;18.70;99.90;;;;;;4994334;28;20092;-73
2022/07/15 13:03:19;;;;;;;5.28;0.13;;;18.60;99.90;;;;;;5004303;28;20129;-73
2022/07/15 13:05:47;;;;;;;2.15;0.25;;;18.50;99.90;;;;;;4999413;28;20445;-74
2022/07/15 13:08:18;;;;;;;1.10;0.30;;;18.90;99.90;;;;;;4999563;28;20097;-74
2022/07/15 13:10:50;;;;;;;4.95;0.50;;;18.30;99.90;;;;;;4997985;28;20462;-73
2022/07/15 13:13:18;;;;;;;0.63;0.20;;;18.20;99.90;;;;;;4996931;28;20045;-74
2022/07/15 13:15:44;;;;;;;1.75;0.25;;;19.20;99.90;;;;;;5000405;28;20042;-73
2022/07/15 13:18:11;;;;;;;1.95;0.30;;;18.20;99.90;;;;;;5002410;28;20085;-74
2022/07/15 13:20:37;;;;;;;3.30;0.20;;;18.10;99.90;;;;;;4996616;28;20033;-72